sensor_id;sensor_type;location;lat;lon;timestamp;P1;durP1;ratioP1;P2;durP2;ratioP2
51358;SDS011;37448;51.588;7.248;2024-02-21T00:01:41;20.40;;;7.15;;
51358;SDS011;37448;51.588;7.248;2024-02-21T00:03:42;18.92;;;6.65;;
51358;SDS011;37448;51.588;7.248;2024-02-21T00:05:42;20.20;;;8.40;;
51358;SDS011;37448;51.588;7.248;2024-02-21T00:07:43;18.42;;;7.63;;
51358;SDS011;37448;51.588;7.248;2024-02-21T00:09:43;17.90;;;7.50;;
51358;SDS011;37448;51.588;7.248;2024-02-21T00:11:43;18.50;;;6.78;;
51358;SDS011;37448;51.588;7.248;2024-02-21T00:13:44;17.27;;;7.50;;
51358;SDS011;37448;51.588;7.248;2024-02-21T00:15:44;23.60;;;9.35;;
51358;SDS011;37448;51.588;7.248;2024-02-21T00:17:45;18.33;;;7.45;;
51358;SDS011;37448;51.588;7.248;2024-02-21T00:19:45;19.55;;;8.55;;
51358;SDS011;37448;51.588;7.248;2024-02-21T00:21:45;20.58;;;8.68;;
51358;SDS011;37448;51.588;7.248;2024-02-21T00:23:46;19.50;;;8.25;;
51358;SDS011;37448;51.588;7.248;2024-02-21T00:25:46;16.27;;;7.55;;
51358;SDS011;37448;51.588;7.248;2024-02-21T00:27:46;20.35;;;7.63;;
51358;SDS011;37448;51.588;7.248;2024-02-21T00:29:47;16.67;;;7.78;;
51358;SDS011;37448;51.588;7.248;2024-02-21T00:31:48;17.75;;;7.90;;
51358;SDS011;37448;51.588;7.248;2024-02-21T00:33:49;18.42;;;7.95;;
51358;SDS011;37448;51.588;7.248;2024-02-21T00:35:50;20.73;;;7.47;;
51358;SDS011;37448;51.588;7.248;2024-02-21T00:37:51;19.88;;;8.45;;
51358;SDS011;37448;51.588;7.248;2024-02-21T00:39:52;21.73;;;8.30;;
51358;SDS011;37448;51.588;7.248;2024-02-21T00:41:54;18.10;;;7.78;;
51358;SDS011;37448;51.588;7.248;2024-02-21T00:43:54;19.83;;;8.23;;
51358;SDS011;37448;51.588;7.248;2024-02-21T00:45:54;17.58;;;7.40;;
51358;SDS011;37448;51.588;7.248;2024-02-21T00:47:55;19.02;;;7.43;;
51358;SDS011;37448;51.588;7.248;2024-02-21T00:49:55;21.48;;;8.15;;
51358;SDS011;37448;51.588;7.248;2024-02-21T00:51:56;16.00;;;6.80;;
51358;SDS011;37448;51.588;7.248;2024-02-21T00:53:56;15.98;;;7.35;;
51358;SDS011;37448;51.588;7.248;2024-02-21T00:55:56;15.32;;;7.03;;
51358;SDS011;37448;51.588;7.248;2024-02-21T00:57:57;20.13;;;7.47;;
51358;SDS011;37448;51.588;7.248;2024-02-21T00:59:57;17.65;;;8.00;;
51358;SDS011;37448;51.588;7.248;2024-02-21T01:01:57;18.77;;;7.50;;
51358;SDS011;37448;51.588;7.248;2024-02-21T01:03:58;18.67;;;7.57;;
51358;SDS011;37448;51.588;7.248;2024-02-21T01:05:58;20.42;;;7.90;;
51358;SDS011;37448;51.588;7.248;2024-02-21T01:07:58;20.70;;;8.57;;
51358;SDS011;37448;51.588;7.248;2024-02-21T01:09:59;23.27;;;8.55;;
51358;SDS011;37448;51.588;7.248;2024-02-21T01:11:59;18.27;;;8.20;;
51358;SDS011;37448;51.588;7.248;2024-02-21T01:13:59;21.40;;;8.38;;
51358;SDS011;37448;51.588;7.248;2024-02-21T01:16:00;20.55;;;8.35;;
51358;SDS011;37448;51.588;7.248;2024-02-21T01:18:00;22.77;;;8.05;;
51358;SDS011;37448;51.588;7.248;2024-02-21T01:20:02;20.23;;;7.50;;
51358;SDS011;37448;51.588;7.248;2024-02-21T01:22:05;20.05;;;7.70;;
51358;SDS011;37448;51.588;7.248;2024-02-21T01:24:05;16.90;;;7.57;;
51358;SDS011;37448;51.588;7.248;2024-02-21T01:26:06;18.42;;;8.07;;
51358;SDS011;37448;51.588;7.248;2024-02-21T01:28:08;18.75;;;7.43;;
51358;SDS011;37448;51.588;7.248;2024-02-21T01:30:08;12.77;;;6.65;;
51358;SDS011;37448;51.588;7.248;2024-02-21T01:32:10;19.75;;;6.72;;
51358;SDS011;37448;51.588;7.248;2024-02-21T01:34:11;17.90;;;7.18;;
51358;SDS011;37448;51.588;7.248;2024-02-21T01:36:11;17.80;;;7.15;;
51358;SDS011;37448;51.588;7.248;2024-02-21T01:38:12;18.85;;;6.43;;
51358;SDS011;37448;51.588;7.248;2024-02-21T01:40:13;16.67;;;7.13;;
51358;SDS011;37448;51.588;7.248;2024-02-21T01:42:13;18.52;;;8.38;;
51358;SDS011;37448;51.588;7.248;2024-02-21T01:44:13;20.52;;;7.80;;
51358;SDS011;37448;51.588;7.248;2024-02-21T01:46:14;16.23;;;7.32;;
51358;SDS011;37448;51.588;7.248;2024-02-21T01:48:14;19.52;;;8.48;;
51358;SDS011;37448;51.588;7.248;2024-02-21T01:50:15;19.60;;;7.93;;
51358;SDS011;37448;51.588;7.248;2024-02-21T01:52:17;16.75;;;7.65;;
51358;SDS011;37448;51.588;7.248;2024-02-21T01:54:17;17.40;;;7.60;;
51358;SDS011;37448;51.588;7.248;2024-02-21T01:56:19;15.15;;;6.95;;
51358;SDS011;37448;51.588;7.248;2024-02-21T01:58:19;22.42;;;8.73;;
51358;SDS011;37448;51.588;7.248;2024-02-21T02:00:20;22.33;;;10.00;;
51358;SDS011;37448;51.588;7.248;2024-02-21T02:02:22;17.08;;;7.32;;
51358;SDS011;37448;51.588;7.248;2024-02-21T02:04:22;18.50;;;8.45;;
51358;SDS011;37448;51.588;7.248;2024-02-21T02:06:24;15.70;;;6.78;;
51358;SDS011;37448;51.588;7.248;2024-02-21T02:08:25;17.70;;;7.25;;
51358;SDS011;37448;51.588;7.248;2024-02-21T02:10:26;17.00;;;7.10;;
51358;SDS011;37448;51.588;7.248;2024-02-21T02:12:26;16.70;;;6.93;;
51358;SDS011;37448;51.588;7.248;2024-02-21T02:14:27;11.32;;;6.53;;
51358;SDS011;37448;51.588;7.248;2024-02-21T02:16:27;14.82;;;6.50;;
51358;SDS011;37448;51.588;7.248;2024-02-21T02:18:28;14.25;;;7.15;;
51358;SDS011;37448;51.588;7.248;2024-02-21T02:20:28;19.15;;;8.27;;
51358;SDS011;37448;51.588;7.248;2024-02-21T02:22:29;17.95;;;7.18;;
51358;SDS011;37448;51.588;7.248;2024-02-21T02:24:30;14.60;;;6.38;;
51358;SDS011;37448;51.588;7.248;2024-02-21T02:26:30;16.67;;;6.85;;
51358;SDS011;37448;51.588;7.248;2024-02-21T02:28:31;17.95;;;6.68;;
51358;SDS011;37448;51.588;7.248;2024-02-21T02:30:32;19.15;;;7.30;;
51358;SDS011;37448;51.588;7.248;2024-02-21T02:32:34;15.07;;;6.68;;
51358;SDS011;37448;51.588;7.248;2024-02-21T02:34:34;13.98;;;6.32;;
51358;SDS011;37448;51.588;7.248;2024-02-21T02:36:35;16.08;;;6.88;;
51358;SDS011;37448;51.588;7.248;2024-02-21T02:38:35;18.67;;;7.10;;
51358;SDS011;37448;51.588;7.248;2024-02-21T02:40:37;11.40;;;6.28;;
51358;SDS011;37448;51.588;7.248;2024-02-21T02:42:38;15.05;;;6.70;;
51358;SDS011;37448;51.588;7.248;2024-02-21T02:44:38;14.80;;;7.05;;
51358;SDS011;37448;51.588;7.248;2024-02-21T02:46:42;14.80;;;5.97;;
51358;SDS011;37448;51.588;7.248;2024-02-21T02:50:43;15.83;;;6.50;;
51358;SDS011;37448;51.588;7.248;2024-02-21T02:52:43;18.63;;;7.15;;
51358;SDS011;37448;51.588;7.248;2024-02-21T02:54:44;14.75;;;7.05;;
51358;SDS011;37448;51.588;7.248;2024-02-21T02:56:45;17.05;;;6.50;;
51358;SDS011;37448;51.588;7.248;2024-02-21T02:58:45;14.63;;;6.63;;
51358;SDS011;37448;51.588;7.248;2024-02-21T03:00:46;12.93;;;6.15;;
51358;SDS011;37448;51.588;7.248;2024-02-21T03:02:46;22.50;;;6.55;;
51358;SDS011;37448;51.588;7.248;2024-02-21T03:04:48;16.73;;;6.57;;
51358;SDS011;37448;51.588;7.248;2024-02-21T03:06:49;14.43;;;6.40;;
51358;SDS011;37448;51.588;7.248;2024-02-21T03:08:50;19.35;;;6.68;;
51358;SDS011;37448;51.588;7.248;2024-02-21T03:10:55;16.83;;;6.95;;
51358;SDS011;37448;51.588;7.248;2024-02-21T03:12:55;20.63;;;6.68;;
51358;SDS011;37448;51.588;7.248;2024-02-21T03:14:55;17.00;;;7.00;;
51358;SDS011;37448;51.588;7.248;2024-02-21T03:16:56;19.02;;;7.63;;
51358;SDS011;37448;51.588;7.248;2024-02-21T03:18:57;18.20;;;5.97;;
51358;SDS011;37448;51.588;7.248;2024-02-21T03:20:58;17.75;;;7.50;;
51358;SDS011;37448;51.588;7.248;2024-02-21T03:22:58;20.67;;;6.80;;
51358;SDS011;37448;51.588;7.248;2024-02-21T03:24:58;17.92;;;6.55;;
51358;SDS011;37448;51.588;7.248;2024-02-21T03:26:59;18.13;;;7.82;;
51358;SDS011;37448;51.588;7.248;2024-02-21T03:28:59;15.63;;;6.03;;
51358;SDS011;37448;51.588;7.248;2024-02-21T03:30:59;18.70;;;6.32;;
51358;SDS011;37448;51.588;7.248;2024-02-21T03:33:00;14.30;;;6.43;;
51358;SDS011;37448;51.588;7.248;2024-02-21T03:35:01;12.57;;;7.20;;
51358;SDS011;37448;51.588;7.248;2024-02-21T03:37:01;14.60;;;6.63;;
51358;SDS011;37448;51.588;7.248;2024-02-21T03:39:02;14.32;;;6.35;;
51358;SDS011;37448;51.588;7.248;2024-02-21T03:41:03;14.90;;;6.40;;
51358;SDS011;37448;51.588;7.248;2024-02-21T03:43:03;16.25;;;6.28;;
51358;SDS011;37448;51.588;7.248;2024-02-21T03:45:04;13.13;;;6.07;;
51358;SDS011;37448;51.588;7.248;2024-02-21T03:47:04;17.35;;;6.85;;
51358;SDS011;37448;51.588;7.248;2024-02-21T03:49:05;18.05;;;6.93;;
51358;SDS011;37448;51.588;7.248;2024-02-21T03:51:05;14.27;;;6.13;;
51358;SDS011;37448;51.588;7.248;2024-02-21T03:53:06;17.42;;;6.47;;
51358;SDS011;37448;51.588;7.248;2024-02-21T03:55:06;16.25;;;6.80;;
51358;SDS011;37448;51.588;7.248;2024-02-21T03:57:07;20.38;;;7.20;;
51358;SDS011;37448;51.588;7.248;2024-02-21T03:59:08;19.00;;;7.10;;
51358;SDS011;37448;51.588;7.248;2024-02-21T04:01:08;17.02;;;6.60;;
51358;SDS011;37448;51.588;7.248;2024-02-21T04:03:09;15.10;;;6.75;;
51358;SDS011;37448;51.588;7.248;2024-02-21T04:05:09;16.92;;;6.80;;
51358;SDS011;37448;51.588;7.248;2024-02-21T04:07:13;17.75;;;7.22;;
51358;SDS011;37448;51.588;7.248;2024-02-21T04:09:14;13.13;;;5.90;;
51358;SDS011;37448;51.588;7.248;2024-02-21T04:11:14;14.68;;;6.57;;
51358;SDS011;37448;51.588;7.248;2024-02-21T04:13:14;14.98;;;6.95;;
51358;SDS011;37448;51.588;7.248;2024-02-21T04:15:15;12.85;;;5.72;;
51358;SDS011;37448;51.588;7.248;2024-02-21T04:17:16;18.58;;;6.35;;
51358;SDS011;37448;51.588;7.248;2024-02-21T04:19:17;10.00;;;5.75;;
51358;SDS011;37448;51.588;7.248;2024-02-21T04:21:17;15.48;;;6.63;;
51358;SDS011;37448;51.588;7.248;2024-02-21T04:23:17;11.55;;;5.38;;
51358;SDS011;37448;51.588;7.248;2024-02-21T04:25:18;14.98;;;5.95;;
51358;SDS011;37448;51.588;7.248;2024-02-21T04:27:19;9.93;;;5.18;;
51358;SDS011;37448;51.588;7.248;2024-02-21T04:29:19;14.75;;;6.15;;
51358;SDS011;37448;51.588;7.248;2024-02-21T04:31:20;15.93;;;7.28;;
51358;SDS011;37448;51.588;7.248;2024-02-21T04:33:20;14.75;;;6.22;;
51358;SDS011;37448;51.588;7.248;2024-02-21T04:35:20;18.95;;;7.25;;
51358;SDS011;37448;51.588;7.248;2024-02-21T04:37:21;12.25;;;5.53;;
51358;SDS011;37448;51.588;7.248;2024-02-21T04:39:21;16.67;;;6.45;;
51358;SDS011;37448;51.588;7.248;2024-02-21T04:41:21;15.15;;;5.78;;
51358;SDS011;37448;51.588;7.248;2024-02-21T04:43:22;16.60;;;7.82;;
51358;SDS011;37448;51.588;7.248;2024-02-21T04:45:22;16.48;;;6.05;;
51358;SDS011;37448;51.588;7.248;2024-02-21T04:47:23;17.65;;;6.63;;
51358;SDS011;37448;51.588;7.248;2024-02-21T04:49:24;12.85;;;5.93;;
51358;SDS011;37448;51.588;7.248;2024-02-21T04:51:25;15.98;;;6.03;;
51358;SDS011;37448;51.588;7.248;2024-02-21T04:53:25;18.10;;;6.47;;
51358;SDS011;37448;51.588;7.248;2024-02-21T04:55:26;12.98;;;5.97;;
51358;SDS011;37448;51.588;7.248;2024-02-21T04:57:26;13.80;;;6.00;;
51358;SDS011;37448;51.588;7.248;2024-02-21T04:59:26;14.65;;;6.13;;
51358;SDS011;37448;51.588;7.248;2024-02-21T05:01:27;15.85;;;6.65;;
51358;SDS011;37448;51.588;7.248;2024-02-21T05:03:28;11.98;;;5.70;;
51358;SDS011;37448;51.588;7.248;2024-02-21T05:05:28;16.85;;;6.22;;
51358;SDS011;37448;51.588;7.248;2024-02-21T05:07:29;15.50;;;5.95;;
51358;SDS011;37448;51.588;7.248;2024-02-21T05:09:29;12.68;;;5.88;;
51358;SDS011;37448;51.588;7.248;2024-02-21T05:11:30;13.80;;;5.93;;
51358;SDS011;37448;51.588;7.248;2024-02-21T05:13:31;14.07;;;6.20;;
51358;SDS011;37448;51.588;7.248;2024-02-21T05:15:31;19.85;;;7.72;;
51358;SDS011;37448;51.588;7.248;2024-02-21T05:17:31;18.63;;;8.63;;
51358;SDS011;37448;51.588;7.248;2024-02-21T05:19:32;15.77;;;7.10;;
51358;SDS011;37448;51.588;7.248;2024-02-21T05:21:32;15.70;;;6.97;;
51358;SDS011;37448;51.588;7.248;2024-02-21T05:23:32;14.75;;;6.40;;
51358;SDS011;37448;51.588;7.248;2024-02-21T05:25:33;17.35;;;6.85;;
51358;SDS011;37448;51.588;7.248;2024-02-21T05:27:33;13.38;;;6.63;;
51358;SDS011;37448;51.588;7.248;2024-02-21T05:29:35;13.13;;;5.00;;
51358;SDS011;37448;51.588;7.248;2024-02-21T05:33:50;11.23;;;5.45;;
51358;SDS011;37448;51.588;7.248;2024-02-21T05:35:51;9.93;;;5.20;;
51358;SDS011;37448;51.588;7.248;2024-02-21T05:37:51;13.32;;;5.40;;
51358;SDS011;37448;51.588;7.248;2024-02-21T05:39:52;8.55;;;4.90;;
51358;SDS011;37448;51.588;7.248;2024-02-21T05:41:53;10.10;;;4.90;;
51358;SDS011;37448;51.588;7.248;2024-02-21T05:43:53;7.50;;;4.53;;
51358;SDS011;37448;51.588;7.248;2024-02-21T05:45:53;12.40;;;5.03;;
51358;SDS011;37448;51.588;7.248;2024-02-21T05:47:54;8.32;;;4.80;;
51358;SDS011;37448;51.588;7.248;2024-02-21T05:49:55;9.68;;;4.43;;
51358;SDS011;37448;51.588;7.248;2024-02-21T05:51:55;13.38;;;5.80;;
51358;SDS011;37448;51.588;7.248;2024-02-21T05:53:55;9.20;;;4.68;;
51358;SDS011;37448;51.588;7.248;2024-02-21T05:55:56;11.38;;;5.18;;
51358;SDS011;37448;51.588;7.248;2024-02-21T05:57:56;11.70;;;4.88;;
51358;SDS011;37448;51.588;7.248;2024-02-21T05:59:56;7.93;;;4.10;;
51358;SDS011;37448;51.588;7.248;2024-02-21T06:01:57;11.65;;;4.80;;
51358;SDS011;37448;51.588;7.248;2024-02-21T06:03:58;10.63;;;4.65;;
51358;SDS011;37448;51.588;7.248;2024-02-21T06:05:58;9.43;;;4.13;;
51358;SDS011;37448;51.588;7.248;2024-02-21T06:07:59;7.38;;;4.32;;
51358;SDS011;37448;51.588;7.248;2024-02-21T06:10:01;8.55;;;4.00;;
51358;SDS011;37448;51.588;7.248;2024-02-21T06:12:03;10.90;;;4.68;;
51358;SDS011;37448;51.588;7.248;2024-02-21T06:14:03;9.30;;;5.05;;
51358;SDS011;37448;51.588;7.248;2024-02-21T06:16:04;9.88;;;3.88;;
51358;SDS011;37448;51.588;7.248;2024-02-21T06:18:05;10.60;;;4.43;;
51358;SDS011;37448;51.588;7.248;2024-02-21T06:20:06;11.68;;;4.35;;
51358;SDS011;37448;51.588;7.248;2024-02-21T06:22:07;11.77;;;3.83;;
51358;SDS011;37448;51.588;7.248;2024-02-21T06:24:08;10.48;;;3.85;;
51358;SDS011;37448;51.588;7.248;2024-02-21T06:26:08;9.45;;;3.88;;
51358;SDS011;37448;51.588;7.248;2024-02-21T06:28:08;10.80;;;3.70;;
51358;SDS011;37448;51.588;7.248;2024-02-21T06:30:09;10.13;;;3.33;;
51358;SDS011;37448;51.588;7.248;2024-02-21T06:32:10;9.20;;;3.65;;
51358;SDS011;37448;51.588;7.248;2024-02-21T06:34:10;9.25;;;4.30;;
51358;SDS011;37448;51.588;7.248;2024-02-21T06:36:11;9.18;;;3.67;;
51358;SDS011;37448;51.588;7.248;2024-02-21T06:38:11;9.35;;;3.15;;
51358;SDS011;37448;51.588;7.248;2024-02-21T06:40:12;8.63;;;4.10;;
51358;SDS011;37448;51.588;7.248;2024-02-21T06:42:12;8.82;;;3.90;;
51358;SDS011;37448;51.588;7.248;2024-02-21T06:44:13;7.53;;;3.58;;
51358;SDS011;37448;51.588;7.248;2024-02-21T06:46:23;9.30;;;3.92;;
51358;SDS011;37448;51.588;7.248;2024-02-21T06:49:06;10.13;;;3.75;;
51358;SDS011;37448;51.588;7.248;2024-02-21T06:51:06;9.32;;;3.75;;
51358;SDS011;37448;51.588;7.248;2024-02-21T06:53:07;12.35;;;4.47;;
51358;SDS011;37448;51.588;7.248;2024-02-21T06:55:07;9.82;;;3.83;;
51358;SDS011;37448;51.588;7.248;2024-02-21T06:57:08;10.45;;;3.53;;
51358;SDS011;37448;51.588;7.248;2024-02-21T06:59:08;6.47;;;3.83;;
51358;SDS011;37448;51.588;7.248;2024-02-21T07:01:09;13.48;;;4.15;;
51358;SDS011;37448;51.588;7.248;2024-02-21T07:03:10;10.57;;;4.22;;
51358;SDS011;37448;51.588;7.248;2024-02-21T07:05:10;8.35;;;3.40;;
51358;SDS011;37448;51.588;7.248;2024-02-21T07:07:11;9.30;;;3.78;;
51358;SDS011;37448;51.588;7.248;2024-02-21T07:09:11;12.77;;;4.03;;
51358;SDS011;37448;51.588;7.248;2024-02-21T07:11:11;8.02;;;3.67;;
51358;SDS011;37448;51.588;7.248;2024-02-21T07:13:12;11.13;;;4.40;;
51358;SDS011;37448;51.588;7.248;2024-02-21T07:15:13;14.70;;;3.97;;
51358;SDS011;37448;51.588;7.248;2024-02-21T07:17:13;10.02;;;3.78;;
51358;SDS011;37448;51.588;7.248;2024-02-21T07:19:14;7.95;;;3.60;;
51358;SDS011;37448;51.588;7.248;2024-02-21T07:21:14;9.50;;;3.50;;
51358;SDS011;37448;51.588;7.248;2024-02-21T07:23:15;12.63;;;4.13;;
51358;SDS011;37448;51.588;7.248;2024-02-21T07:25:15;11.13;;;3.67;;
51358;SDS011;37448;51.588;7.248;2024-02-21T07:27:16;10.20;;;4.00;;
51358;SDS011;37448;51.588;7.248;2024-02-21T07:29:16;7.82;;;3.95;;
51358;SDS011;37448;51.588;7.248;2024-02-21T07:31:17;16.55;;;3.80;;
51358;SDS011;37448;51.588;7.248;2024-02-21T07:33:17;8.68;;;3.65;;
51358;SDS011;37448;51.588;7.248;2024-02-21T07:35:17;8.10;;;3.75;;
51358;SDS011;37448;51.588;7.248;2024-02-21T07:37:18;10.98;;;3.80;;
51358;SDS011;37448;51.588;7.248;2024-02-21T07:39:18;8.27;;;3.72;;
51358;SDS011;37448;51.588;7.248;2024-02-21T07:41:19;9.57;;;3.67;;
51358;SDS011;37448;51.588;7.248;2024-02-21T07:43:19;7.75;;;3.83;;
51358;SDS011;37448;51.588;7.248;2024-02-21T07:45:22;9.52;;;3.88;;
51358;SDS011;37448;51.588;7.248;2024-02-21T07:47:24;8.43;;;3.22;;
51358;SDS011;37448;51.588;7.248;2024-02-21T07:49:24;13.02;;;3.70;;
51358;SDS011;37448;51.588;7.248;2024-02-21T07:51:27;11.20;;;4.32;;
51358;SDS011;37448;51.588;7.248;2024-02-21T07:53:28;10.88;;;4.32;;
51358;SDS011;37448;51.588;7.248;2024-02-21T07:55:28;5.28;;;3.08;;
51358;SDS011;37448;51.588;7.248;2024-02-21T07:57:29;9.68;;;3.85;;
51358;SDS011;37448;51.588;7.248;2024-02-21T07:59:29;11.43;;;3.80;;
51358;SDS011;37448;51.588;7.248;2024-02-21T08:01:30;9.60;;;3.42;;
51358;SDS011;37448;51.588;7.248;2024-02-21T08:03:30;9.43;;;3.85;;
51358;SDS011;37448;51.588;7.248;2024-02-21T08:05:33;8.35;;;4.60;;
51358;SDS011;37448;51.588;7.248;2024-02-21T08:07:34;11.43;;;3.80;;
51358;SDS011;37448;51.588;7.248;2024-02-21T08:09:35;9.27;;;3.95;;
51358;SDS011;37448;51.588;7.248;2024-02-21T08:11:37;7.18;;;3.10;;
51358;SDS011;37448;51.588;7.248;2024-02-21T08:13:38;7.30;;;4.43;;
51358;SDS011;37448;51.588;7.248;2024-02-21T08:15:38;6.68;;;3.25;;
51358;SDS011;37448;51.588;7.248;2024-02-21T08:17:39;9.15;;;3.75;;
51358;SDS011;37448;51.588;7.248;2024-02-21T08:19:40;7.88;;;3.60;;
51358;SDS011;37448;51.588;7.248;2024-02-21T08:21:40;7.60;;;3.38;;
51358;SDS011;37448;51.588;7.248;2024-02-21T08:23:40;7.07;;;3.92;;
51358;SDS011;37448;51.588;7.248;2024-02-21T08:25:41;6.20;;;3.15;;
51358;SDS011;37448;51.588;7.248;2024-02-21T08:27:41;6.00;;;3.08;;
51358;SDS011;37448;51.588;7.248;2024-02-21T08:29:41;8.27;;;3.60;;
51358;SDS011;37448;51.588;7.248;2024-02-21T08:31:42;6.07;;;3.40;;
51358;SDS011;37448;51.588;7.248;2024-02-21T08:33:42;5.88;;;3.08;;
51358;SDS011;37448;51.588;7.248;2024-02-21T08:35:42;5.70;;;3.35;;
51358;SDS011;37448;51.588;7.248;2024-02-21T08:37:43;8.93;;;3.53;;
51358;SDS011;37448;51.588;7.248;2024-02-21T08:39:43;9.68;;;2.95;;
51358;SDS011;37448;51.588;7.248;2024-02-21T08:41:44;6.45;;;3.05;;
51358;SDS011;37448;51.588;7.248;2024-02-21T08:43:44;8.95;;;3.80;;
51358;SDS011;37448;51.588;7.248;2024-02-21T08:45:44;4.88;;;2.80;;
51358;SDS011;37448;51.588;7.248;2024-02-21T08:47:45;5.88;;;3.10;;
51358;SDS011;37448;51.588;7.248;2024-02-21T08:49:45;13.23;;;5.72;;
51358;SDS011;37448;51.588;7.248;2024-02-21T08:51:45;12.25;;;3.85;;
51358;SDS011;37448;51.588;7.248;2024-02-21T08:53:46;9.80;;;3.65;;
51358;SDS011;37448;51.588;7.248;2024-02-21T08:55:47;8.48;;;3.45;;
51358;SDS011;37448;51.588;7.248;2024-02-21T08:57:48;4.93;;;2.92;;
51358;SDS011;37448;51.588;7.248;2024-02-21T08:59:48;8.48;;;3.08;;
51358;SDS011;37448;51.588;7.248;2024-02-21T09:01:49;8.18;;;2.97;;
51358;SDS011;37448;51.588;7.248;2024-02-21T09:03:51;9.45;;;3.10;;
51358;SDS011;37448;51.588;7.248;2024-02-21T09:05:53;6.40;;;2.95;;
51358;SDS011;37448;51.588;7.248;2024-02-21T09:07:54;8.52;;;2.72;;
51358;SDS011;37448;51.588;7.248;2024-02-21T09:09:54;9.05;;;3.85;;
51358;SDS011;37448;51.588;7.248;2024-02-21T09:11:55;8.15;;;2.65;;
51358;SDS011;37448;51.588;7.248;2024-02-21T09:13:55;7.75;;;2.90;;
51358;SDS011;37448;51.588;7.248;2024-02-21T09:15:55;7.97;;;2.50;;
51358;SDS011;37448;51.588;7.248;2024-02-21T09:17:56;8.27;;;3.47;;
51358;SDS011;37448;51.588;7.248;2024-02-21T09:19:56;7.72;;;3.20;;
51358;SDS011;37448;51.588;7.248;2024-02-21T09:21:59;5.88;;;2.60;;
51358;SDS011;37448;51.588;7.248;2024-02-21T09:23:59;8.60;;;3.22;;
51358;SDS011;37448;51.588;7.248;2024-02-21T09:25:59;8.27;;;3.08;;
51358;SDS011;37448;51.588;7.248;2024-02-21T09:28:03;4.38;;;2.10;;
51358;SDS011;37448;51.588;7.248;2024-02-21T09:30:06;8.05;;;3.53;;
51358;SDS011;37448;51.588;7.248;2024-02-21T09:32:07;9.25;;;3.40;;
51358;SDS011;37448;51.588;7.248;2024-02-21T09:34:07;5.72;;;3.03;;
51358;SDS011;37448;51.588;7.248;2024-02-21T09:36:08;8.38;;;3.35;;
51358;SDS011;37448;51.588;7.248;2024-02-21T09:38:08;8.82;;;3.35;;
51358;SDS011;37448;51.588;7.248;2024-02-21T09:40:09;8.45;;;3.45;;
51358;SDS011;37448;51.588;7.248;2024-02-21T09:42:11;10.68;;;3.85;;
51358;SDS011;37448;51.588;7.248;2024-02-21T09:44:11;9.60;;;3.45;;
51358;SDS011;37448;51.588;7.248;2024-02-21T09:46:18;13.07;;;3.58;;
51358;SDS011;37448;51.588;7.248;2024-02-21T09:50:28;11.63;;;4.30;;
51358;SDS011;37448;51.588;7.248;2024-02-21T09:52:30;7.45;;;3.40;;
51358;SDS011;37448;51.588;7.248;2024-02-21T09:54:32;6.85;;;3.05;;
51358;SDS011;37448;51.588;7.248;2024-02-21T09:56:36;7.22;;;2.50;;
51358;SDS011;37448;51.588;7.248;2024-02-21T09:58:36;6.43;;;3.05;;
51358;SDS011;37448;51.588;7.248;2024-02-21T10:00:38;9.35;;;3.08;;
51358;SDS011;37448;51.588;7.248;2024-02-21T10:02:41;6.55;;;4.03;;
51358;SDS011;37448;51.588;7.248;2024-02-21T10:04:41;5.80;;;3.28;;
51358;SDS011;37448;51.588;7.248;2024-02-21T10:06:42;8.65;;;3.13;;
51358;SDS011;37448;51.588;7.248;2024-02-21T10:08:43;11.75;;;3.80;;
51358;SDS011;37448;51.588;7.248;2024-02-21T10:10:45;10.48;;;4.03;;
51358;SDS011;37448;51.588;7.248;2024-02-21T10:12:49;10.63;;;3.75;;
51358;SDS011;37448;51.588;7.248;2024-02-21T10:14:59;9.85;;;4.00;;
51358;SDS011;37448;51.588;7.248;2024-02-21T10:17:00;12.25;;;3.90;;
51358;SDS011;37448;51.588;7.248;2024-02-21T10:19:02;9.15;;;4.00;;
51358;SDS011;37448;51.588;7.248;2024-02-21T10:21:03;8.45;;;3.63;;
51358;SDS011;37448;51.588;7.248;2024-02-21T10:23:05;12.07;;;4.20;;
51358;SDS011;37448;51.588;7.248;2024-02-21T10:25:09;10.32;;;3.97;;
51358;SDS011;37448;51.588;7.248;2024-02-21T10:27:10;9.25;;;3.65;;
51358;SDS011;37448;51.588;7.248;2024-02-21T10:29:11;8.27;;;3.90;;
51358;SDS011;37448;51.588;7.248;2024-02-21T10:31:20;9.13;;;4.07;;
51358;SDS011;37448;51.588;7.248;2024-02-21T10:33:23;7.90;;;3.40;;
51358;SDS011;37448;51.588;7.248;2024-02-21T10:35:29;7.57;;;3.60;;
51358;SDS011;37448;51.588;7.248;2024-02-21T10:37:30;6.93;;;3.60;;
51358;SDS011;37448;51.588;7.248;2024-02-21T10:39:32;10.70;;;4.00;;
51358;SDS011;37448;51.588;7.248;2024-02-21T10:41:33;6.57;;;3.78;;
51358;SDS011;37448;51.588;7.248;2024-02-21T10:43:40;7.60;;;3.72;;
51358;SDS011;37448;51.588;7.248;2024-02-21T10:45:41;8.60;;;4.25;;
51358;SDS011;37448;51.588;7.248;2024-02-21T10:47:41;6.97;;;4.40;;
51358;SDS011;37448;51.588;7.248;2024-02-21T10:49:49;10.30;;;4.20;;
51358;SDS011;37448;51.588;7.248;2024-02-21T10:52:06;12.15;;;4.90;;
51358;SDS011;37448;51.588;7.248;2024-02-21T10:56:37;9.75;;;4.22;;
51358;SDS011;37448;51.588;7.248;2024-02-21T10:58:39;6.07;;;3.38;;
51358;SDS011;37448;51.588;7.248;2024-02-21T11:00:41;8.38;;;3.63;;
51358;SDS011;37448;51.588;7.248;2024-02-21T11:02:43;8.63;;;3.55;;
51358;SDS011;37448;51.588;7.248;2024-02-21T11:04:44;8.60;;;3.28;;
51358;SDS011;37448;51.588;7.248;2024-02-21T11:06:45;7.70;;;3.70;;
51358;SDS011;37448;51.588;7.248;2024-02-21T11:08:47;7.35;;;3.55;;
51358;SDS011;37448;51.588;7.248;2024-02-21T11:10:49;7.38;;;3.45;;
51358;SDS011;37448;51.588;7.248;2024-02-21T11:12:52;5.80;;;2.75;;
51358;SDS011;37448;51.588;7.248;2024-02-21T11:15:14;7.53;;;3.08;;
51358;SDS011;37448;51.588;7.248;2024-02-21T11:17:18;6.43;;;2.50;;
51358;SDS011;37448;51.588;7.248;2024-02-21T11:21:32;5.40;;;2.22;;
51358;SDS011;37448;51.588;7.248;2024-02-21T11:23:33;5.13;;;2.33;;
51358;SDS011;37448;51.588;7.248;2024-02-21T11:25:34;4.82;;;2.92;;
51358;SDS011;37448;51.588;7.248;2024-02-21T11:27:34;4.47;;;2.47;;
51358;SDS011;37448;51.588;7.248;2024-02-21T11:31:49;6.03;;;2.83;;
51358;SDS011;37448;51.588;7.248;2024-02-21T11:33:50;6.85;;;3.13;;
51358;SDS011;37448;51.588;7.248;2024-02-21T11:35:51;8.38;;;3.00;;
51358;SDS011;37448;51.588;7.248;2024-02-21T11:37:53;6.35;;;2.75;;
51358;SDS011;37448;51.588;7.248;2024-02-21T11:39:54;8.05;;;3.28;;
51358;SDS011;37448;51.588;7.248;2024-02-21T11:42:01;6.47;;;3.28;;
51358;SDS011;37448;51.588;7.248;2024-02-21T11:44:07;7.72;;;3.35;;
51358;SDS011;37448;51.588;7.248;2024-02-21T11:46:08;5.35;;;2.58;;
51358;SDS011;37448;51.588;7.248;2024-02-21T11:48:09;3.83;;;2.85;;
51358;SDS011;37448;51.588;7.248;2024-02-21T11:50:10;6.90;;;3.17;;
51358;SDS011;37448;51.588;7.248;2024-02-21T11:52:10;5.30;;;2.83;;
51358;SDS011;37448;51.588;7.248;2024-02-21T11:54:11;6.25;;;3.00;;
51358;SDS011;37448;51.588;7.248;2024-02-21T11:56:13;4.78;;;2.80;;
51358;SDS011;37448;51.588;7.248;2024-02-21T11:58:14;5.20;;;2.70;;
51358;SDS011;37448;51.588;7.248;2024-02-21T12:00:16;6.97;;;3.28;;
51358;SDS011;37448;51.588;7.248;2024-02-21T12:02:18;8.23;;;2.80;;
51358;SDS011;37448;51.588;7.248;2024-02-21T12:04:19;9.55;;;3.08;;
51358;SDS011;37448;51.588;7.248;2024-02-21T12:06:20;9.38;;;3.63;;
51358;SDS011;37448;51.588;7.248;2024-02-21T12:08:22;6.35;;;2.80;;
51358;SDS011;37448;51.588;7.248;2024-02-21T12:10:22;7.18;;;2.95;;
51358;SDS011;37448;51.588;7.248;2024-02-21T12:12:22;7.75;;;3.22;;
51358;SDS011;37448;51.588;7.248;2024-02-21T12:14:24;7.40;;;3.08;;
51358;SDS011;37448;51.588;7.248;2024-02-21T12:16:26;7.60;;;3.53;;
51358;SDS011;37448;51.588;7.248;2024-02-21T12:18:28;6.47;;;3.28;;